createdAt,value
2022-11-16T00:01:05.446Z,15.25
2022-11-16T00:03:33.442Z,15.80
2022-11-16T00:06:03.614Z,12.63
2022-11-16T00:08:32.872Z,15.73
2022-11-16T00:11:17.356Z,17.30
2022-11-16T00:13:44.120Z,13.93
2022-11-16T00:16:17.984Z,17.95
2022-11-16T00:18:45.517Z,16.55
2022-11-16T00:21:12.452Z,18.93
2022-11-16T00:23:40.013Z,15.18
2022-11-16T00:26:08.423Z,19.15
2022-11-16T00:28:35.837Z,20.85
2022-11-16T00:31:06.433Z,21.60
2022-11-16T00:33:35.191Z,19.90
2022-11-16T00:36:03.726Z,20.85
2022-11-16T00:38:30.889Z,20.73
2022-11-16T00:40:57.956Z,18.90
2022-11-16T00:43:27.361Z,16.90
2022-11-16T00:45:54.326Z,14.73
2022-11-16T00:48:22.598Z,17.45
2022-11-16T00:50:49.802Z,19.45
2022-11-16T00:53:19.471Z,20.25
2022-11-16T00:55:47.891Z,16.40
2022-11-16T00:58:15.803Z,15.03
2022-11-16T01:00:43.353Z,15.23
2022-11-16T01:03:10.954Z,11.98
2022-11-16T01:05:37.848Z,12.43
2022-11-16T01:08:04.909Z,11.05
2022-11-16T01:10:31.718Z,11.77
2022-11-16T01:12:58.969Z,12.27
2022-11-16T01:15:27.692Z,10.10
2022-11-16T01:17:56.549Z,10.73
2022-11-16T01:20:27.107Z,9.15
2022-11-16T01:22:55.679Z,8.30
2022-11-16T01:25:22.809Z,8.95
2022-11-16T01:27:49.756Z,9.25
2022-11-16T01:30:16.781Z,9.25
2022-11-16T01:32:43.790Z,9.18
2022-11-16T01:35:17.447Z,8.73
2022-11-16T01:37:45.153Z,9.65
2022-11-16T01:40:13.923Z,8.45
2022-11-16T01:42:41.480Z,8.73
2022-11-16T01:45:44.744Z,8.90
2022-11-16T01:48:14.787Z,10.80
2022-11-16T01:50:42.672Z,10.52
2022-11-16T01:53:11.379Z,9.40
2022-11-16T01:55:39.768Z,10.23
2022-11-16T01:58:07.576Z,10.57
2022-11-16T02:00:34.462Z,11.13
2022-11-16T02:03:01.762Z,13.07
2022-11-16T02:05:41.139Z,15.68
2022-11-16T02:08:24.777Z,15.68
2022-11-16T02:11:05.763Z,16.05
2022-11-16T02:14:10.773Z,11.80
2022-11-16T02:16:43.469Z,12.93
2022-11-16T02:19:38.152Z,18.08
2022-11-16T02:22:23.420Z,18.45
2022-11-16T02:25:13.641Z,16.88
2022-11-16T02:28:05.243Z,18.30
2022-11-16T02:30:32.770Z,18.38
2022-11-16T02:33:05.109Z,17.55
2022-11-16T02:35:37.832Z,15.98
2022-11-16T02:38:27.248Z,17.77
2022-11-16T02:41:10.857Z,17.77
2022-11-16T02:43:47.654Z,16.40
2022-11-16T02:46:25.202Z,15.35
2022-11-16T02:48:56.438Z,16.55
2022-11-16T02:51:27.574Z,17.48
2022-11-16T02:54:21.223Z,14.77
2022-11-16T02:57:03.453Z,13.23
2022-11-16T02:59:36.601Z,15.43
2022-11-16T03:02:21.531Z,17.08
2022-11-16T03:04:52.278Z,16.98
2022-11-16T03:07:26.045Z,16.23
2022-11-16T03:09:55.216Z,17.52
2022-11-16T03:12:25.687Z,16.35
2022-11-16T03:15:01.796Z,13.52
2022-11-16T03:17:37.050Z,12.13
2022-11-16T03:20:26.438Z,12.27
2022-11-16T03:23:03.484Z,15.40
2022-11-16T03:25:37.128Z,12.85
2022-11-16T03:28:08.499Z,10.38
2022-11-16T03:30:44.323Z,8.70
2022-11-16T03:33:19.538Z,9.67
2022-11-16T03:36:04.677Z,11.98
2022-11-16T03:38:36.298Z,14.75
2022-11-16T03:41:08.035Z,14.75
2022-11-16T03:43:36.538Z,12.82
2022-11-16T03:46:03.788Z,13.07
2022-11-16T03:48:39.740Z,14.00
2022-11-16T03:51:09.497Z,15.45
2022-11-16T03:53:36.658Z,13.65
2022-11-16T03:56:04.794Z,13.60
2022-11-16T03:58:33.975Z,13.43
2022-11-16T04:01:01.260Z,10.88
2022-11-16T04:03:28.066Z,9.15
2022-11-16T04:05:56.203Z,11.07
2022-11-16T04:08:23.077Z,11.90
2022-11-16T04:10:49.994Z,13.90
2022-11-16T04:13:23.720Z,15.35
2022-11-16T04:15:50.405Z,13.80
2022-11-16T04:18:17.844Z,14.52
2022-11-16T04:20:45.361Z,13.40
2022-11-16T04:23:16.496Z,14.90
2022-11-16T04:25:44.617Z,13.23
2022-11-16T04:28:12.255Z,11.18
2022-11-16T04:30:47.994Z,10.30
2022-11-16T04:33:14.880Z,10.00
2022-11-16T04:35:42.423Z,9.90
2022-11-16T04:38:09.192Z,11.07
2022-11-16T04:40:36.904Z,13.00
2022-11-16T04:43:04.942Z,13.13
2022-11-16T04:45:32.174Z,11.52
2022-11-16T04:47:58.917Z,11.03
2022-11-16T04:50:26.509Z,11.15
2022-11-16T04:52:53.211Z,13.70
2022-11-16T04:55:21.450Z,13.02
2022-11-16T04:57:48.344Z,10.85
2022-11-16T05:00:15.629Z,13.73
2022-11-16T05:02:42.491Z,14.50
2022-11-16T05:05:10.063Z,14.95
2022-11-16T05:07:39.126Z,15.23
2022-11-16T05:10:06.495Z,13.82
2022-11-16T05:12:34.552Z,14.30
2022-11-16T05:15:01.321Z,14.95
2022-11-16T05:17:28.454Z,14.98
2022-11-16T05:19:55.555Z,15.30
2022-11-16T05:22:22.654Z,16.23
2022-11-16T05:24:49.492Z,14.70
2022-11-16T05:27:18.310Z,15.55
2022-11-16T05:29:45.231Z,14.90
2022-11-16T05:32:13.182Z,15.60
2022-11-16T05:34:40.144Z,16.45
2022-11-16T05:37:07.195Z,15.90
2022-11-16T05:39:34.356Z,16.60
2022-11-16T05:42:01.606Z,15.85
2022-11-16T05:44:28.358Z,16.63
2022-11-16T05:46:55.394Z,16.85
2022-11-16T05:49:22.894Z,18.17
2022-11-16T05:51:50.035Z,18.58
2022-11-16T05:54:21.860Z,18.20
2022-11-16T05:56:49.616Z,17.70
2022-11-16T05:59:18.587Z,17.85
2022-11-16T06:01:45.946Z,17.50
2022-11-16T06:04:13.552Z,17.17
2022-11-16T06:06:40.950Z,21.98
2022-11-16T06:09:08.442Z,14.70
2022-11-16T06:11:36.331Z,19.02
2022-11-16T06:14:03.282Z,20.57
2022-11-16T06:16:30.203Z,20.17
2022-11-16T06:19:00.091Z,21.40
2022-11-16T06:21:27.264Z,21.25
2022-11-16T06:23:54.020Z,20.38
2022-11-16T06:26:21.145Z,20.97
2022-11-16T06:28:48.731Z,20.90
2022-11-16T06:31:15.551Z,19.80
2022-11-16T06:33:42.382Z,22.05
2022-11-16T06:36:12.220Z,23.02
2022-11-16T06:38:42.635Z,23.17
2022-11-16T06:41:09.569Z,21.42
2022-11-16T06:43:36.426Z,21.95
2022-11-16T06:46:03.284Z,21.45
2022-11-16T06:48:30.956Z,20.63
2022-11-16T06:50:57.887Z,21.90
2022-11-16T06:53:29.017Z,21.80
2022-11-16T06:56:00.386Z,22.65
2022-11-16T06:58:29.487Z,23.30
2022-11-16T07:00:56.211Z,23.15
2022-11-16T07:03:23.966Z,22.67
2022-11-16T07:05:50.775Z,23.08
2022-11-16T07:08:17.473Z,23.77
2022-11-16T07:10:44.516Z,23.13
2022-11-16T07:13:11.286Z,23.75
2022-11-16T07:15:38.067Z,22.83
2022-11-16T07:18:07.195Z,23.52
2022-11-16T07:20:34.836Z,22.25
2022-11-16T07:23:03.229Z,23.38
2022-11-16T07:25:31.890Z,23.17
2022-11-16T07:27:58.678Z,24.23
2022-11-16T07:30:26.555Z,23.13
2022-11-16T07:32:58.127Z,21.63
2022-11-16T07:35:25.310Z,21.77
2022-11-16T07:37:52.169Z,20.27
2022-11-16T07:40:19.465Z,20.10
2022-11-16T07:42:46.339Z,18.90
2022-11-16T07:45:13.245Z,18.77
2022-11-16T07:47:40.113Z,18.55
2022-11-16T07:50:07.532Z,18.80
2022-11-16T07:52:34.868Z,19.97
2022-11-16T07:55:02.053Z,19.55
2022-11-16T07:57:28.967Z,18.92
2022-11-16T07:59:56.013Z,17.80
2022-11-16T08:02:22.977Z,18.88
2022-11-16T08:04:50.514Z,19.13
2022-11-16T08:07:17.339Z,19.60
2022-11-16T08:09:44.270Z,19.50
2022-11-16T08:12:11.177Z,18.63
2022-11-16T08:14:37.992Z,21.58
2022-11-16T08:17:05.074Z,21.23
2022-11-16T08:19:31.922Z,21.65
2022-11-16T08:21:58.717Z,21.40
2022-11-16T08:24:26.092Z,22.00
2022-11-16T08:26:52.834Z,22.83
2022-11-16T08:29:19.730Z,22.93
2022-11-16T08:31:46.937Z,23.13
2022-11-16T08:34:16.204Z,23.40
2022-11-16T08:36:42.971Z,22.55
2022-11-16T08:39:09.952Z,20.98
2022-11-16T08:41:36.841Z,22.27
2022-11-16T08:44:04.273Z,22.02
2022-11-16T08:46:31.017Z,21.83
2022-11-16T08:48:58.446Z,23.05
2022-11-16T08:51:28.319Z,21.77
2022-11-16T08:53:59.076Z,20.03
2022-11-16T08:56:26.615Z,19.77
2022-11-16T08:58:58.398Z,19.77
2022-11-16T09:01:28.492Z,21.00
2022-11-16T09:03:56.305Z,20.75
2022-11-16T09:06:24.765Z,19.43
2022-11-16T09:08:52.527Z,19.55
2022-11-16T09:11:21.620Z,21.02
2022-11-16T09:13:49.989Z,19.92
2022-11-16T09:16:22.306Z,22.38
2022-11-16T09:18:51.927Z,24.37
2022-11-16T09:21:26.737Z,23.02
2022-11-16T09:24:05.641Z,23.23
2022-11-16T09:26:32.576Z,22.77
2022-11-16T09:29:01.177Z,26.00
2022-11-16T09:31:37.155Z,19.07
2022-11-16T09:34:04.055Z,17.30
2022-11-16T09:36:31.522Z,16.08
2022-11-16T09:42:08.448Z,17.45
2022-11-16T09:44:56.647Z,14.97
2022-11-16T09:47:47.057Z,13.60
2022-11-16T09:50:47.848Z,14.73
2022-11-16T09:53:23.973Z,15.70
2022-11-16T09:55:53.395Z,16.83
2022-11-16T09:58:47.130Z,19.70
2022-11-16T10:01:41.969Z,17.42
2022-11-16T10:04:18.313Z,19.20
2022-11-16T10:06:51.774Z,20.98
2022-11-16T10:09:19.574Z,21.35
2022-11-16T10:11:55.239Z,21.63
2022-11-16T10:14:42.940Z,18.20
2022-11-16T10:17:17.097Z,16.98
2022-11-16T10:20:10.763Z,18.80
2022-11-16T10:23:14.168Z,16.92
2022-11-16T10:25:45.122Z,13.97
2022-11-16T10:28:49.249Z,16.35
2022-11-16T10:31:50.949Z,14.73
2022-11-16T10:34:26.446Z,15.85
2022-11-16T10:37:01.244Z,15.07
2022-11-16T10:39:31.570Z,15.10
2022-11-16T10:42:07.211Z,15.95
2022-11-16T10:44:52.731Z,16.00
2022-11-16T10:47:34.051Z,14.18
2022-11-16T10:50:18.712Z,13.20
2022-11-16T10:52:45.590Z,16.13
2022-11-16T10:55:15.817Z,14.52
2022-11-16T10:58:03.459Z,13.10
2022-11-16T11:00:49.908Z,15.98
2022-11-16T11:03:30.597Z,13.18
2022-11-16T11:05:57.645Z,12.20
2022-11-16T11:08:27.583Z,14.60
2022-11-16T11:11:05.682Z,15.32
2022-11-16T11:13:32.873Z,15.52
2022-11-16T11:16:17.838Z,15.48
2022-11-16T11:18:46.266Z,15.07
2022-11-16T11:21:18.859Z,15.00
2022-11-16T11:23:49.590Z,14.80
2022-11-16T11:26:36.145Z,13.82
2022-11-16T11:29:20.746Z,14.80
2022-11-16T11:31:51.969Z,14.97
2022-11-16T11:34:35.375Z,14.88
2022-11-16T11:37:04.014Z,15.73
2022-11-16T11:39:32.816Z,14.80
2022-11-16T11:42:04.339Z,14.63
2022-11-16T11:44:38.664Z,14.73
2022-11-16T11:48:01.941Z,14.32
2022-11-16T11:51:06.930Z,16.15
2022-11-16T11:53:42.637Z,16.30
2022-11-16T11:56:12.885Z,17.70
2022-11-16T11:58:40.963Z,15.97
2022-11-16T12:01:44.462Z,16.08
2022-11-16T12:04:38.026Z,15.68
2022-11-16T12:07:18.457Z,15.68
2022-11-16T12:10:00.553Z,16.55
2022-11-16T12:13:21.243Z,14.50
2022-11-16T12:19:39.234Z,14.63
2022-11-16T12:22:40.084Z,14.45
2022-11-16T13:22:09.217Z,11.10
2022-11-16T13:28:38.261Z,11.50
2022-11-16T13:31:17.507Z,11.88
2022-11-16T13:44:51.673Z,11.37
2022-11-16T14:06:30.140Z,13.95
2022-11-16T14:08:58.234Z,13.23
2022-11-16T14:11:37.918Z,13.43
2022-11-16T14:14:10.584Z,13.32
2022-11-16T14:16:59.092Z,12.48
2022-11-16T14:19:44.324Z,12.65
2022-11-16T14:22:53.351Z,12.50
2022-11-16T14:25:28.485Z,13.75
2022-11-16T14:28:25.654Z,13.05
2022-11-16T14:31:01.302Z,13.77
2022-11-16T14:33:36.314Z,13.63
2022-11-16T14:36:06.687Z,11.90
2022-11-16T14:38:36.896Z,12.95
2022-11-16T14:41:06.780Z,13.00
2022-11-16T14:43:43.639Z,13.85
2022-11-16T14:46:35.019Z,13.00
2022-11-16T14:49:03.224Z,12.87
2022-11-16T14:51:41.955Z,12.60
2022-11-16T14:54:35.049Z,12.00
2022-11-16T14:57:04.730Z,12.10
2022-11-16T14:59:32.222Z,12.93
2022-11-16T15:02:04.883Z,12.40
2022-11-16T15:04:32.295Z,12.60
2022-11-16T15:07:03.308Z,13.02
2022-11-16T15:09:37.480Z,14.27
2022-11-16T15:12:07.003Z,12.95
2022-11-16T15:14:40.694Z,12.50
2022-11-16T15:17:08.280Z,12.63
2022-11-16T15:19:35.588Z,13.73
2022-11-16T15:22:04.363Z,12.40
2022-11-16T15:24:33.498Z,12.73
2022-11-16T15:27:09.573Z,13.88
2022-11-16T15:29:37.031Z,14.40
2022-11-16T15:32:04.707Z,13.45
2022-11-16T15:34:34.695Z,14.10
2022-11-16T15:37:02.437Z,14.30
2022-11-16T15:39:34.542Z,14.10
2022-11-16T15:42:04.189Z,13.45
2022-11-16T15:44:33.283Z,14.60
2022-11-16T15:47:02.443Z,15.00
2022-11-16T15:49:30.455Z,15.32
2022-11-16T15:51:58.713Z,14.63
2022-11-16T15:54:25.528Z,14.45
2022-11-16T15:56:56.064Z,16.48
2022-11-16T15:59:31.822Z,14.73
2022-11-16T16:02:07.051Z,13.23
2022-11-16T16:05:06.344Z,14.73
2022-11-16T16:07:41.769Z,14.40
2022-11-16T16:10:24.720Z,14.25
2022-11-16T16:12:56.867Z,13.03
2022-11-16T16:15:35.192Z,14.20
2022-11-16T16:18:04.081Z,11.55
2022-11-16T16:20:32.718Z,12.25
2022-11-16T16:23:11.615Z,12.23
2022-11-16T16:25:39.033Z,12.00
2022-11-16T16:28:07.126Z,11.02
2022-11-16T16:30:34.177Z,12.35
2022-11-16T16:33:02.284Z,11.00
2022-11-16T16:35:29.249Z,12.15
2022-11-16T16:38:00.603Z,13.13
2022-11-16T16:40:28.307Z,11.85
2022-11-16T16:42:56.497Z,13.18
2022-11-16T16:45:49.824Z,11.60
2022-11-16T16:48:16.637Z,12.50
2022-11-16T16:50:43.538Z,12.83
2022-11-16T16:53:14.467Z,11.50
2022-11-16T16:55:44.384Z,12.35
2022-11-16T16:58:13.072Z,11.27
2022-11-16T17:00:40.783Z,10.63
2022-11-16T17:03:08.022Z,13.50
2022-11-16T17:05:35.045Z,11.77
2022-11-16T17:08:02.082Z,13.55
2022-11-16T17:10:28.932Z,13.35
2022-11-16T17:12:58.890Z,13.75
2022-11-16T17:15:25.763Z,12.40
2022-11-16T17:17:52.591Z,13.27
2022-11-16T17:20:19.537Z,13.00
2022-11-16T17:22:46.332Z,12.93
2022-11-16T17:25:13.261Z,14.48
2022-11-16T17:27:40.140Z,14.47
2022-11-16T17:30:07.852Z,14.13
2022-11-16T17:32:34.697Z,14.45
2022-11-16T17:35:01.761Z,14.57
2022-11-16T17:37:28.613Z,13.82
2022-11-16T17:39:55.414Z,13.23
2022-11-16T17:42:22.356Z,12.70
2022-11-16T17:44:49.120Z,13.30
2022-11-16T17:47:16.013Z,11.23
2022-11-16T17:49:42.867Z,12.23
2022-11-16T17:52:09.679Z,11.73
2022-11-16T17:54:36.540Z,11.25
2022-11-16T17:57:03.363Z,11.13
2022-11-16T17:59:30.848Z,11.23
2022-11-16T18:01:57.704Z,10.82
2022-11-16T18:04:24.677Z,11.53
2022-11-16T18:06:51.964Z,10.05
2022-11-16T18:09:18.820Z,12.68
2022-11-16T18:11:45.857Z,13.10
2022-11-16T18:14:13.100Z,12.15
2022-11-16T18:16:39.918Z,12.23
2022-11-16T18:19:07.473Z,11.85
2022-11-16T18:21:41.348Z,13.20
2022-11-16T18:24:09.178Z,11.15
2022-11-16T18:26:36.919Z,9.60
2022-11-16T18:29:04.070Z,10.83
2022-11-16T18:31:30.905Z,9.48
2022-11-16T18:33:57.719Z,10.02
2022-11-16T18:36:24.831Z,9.48
2022-11-16T18:38:51.610Z,9.88
2022-11-16T18:41:25.112Z,10.33
2022-11-16T18:44:00.198Z,8.90
2022-11-16T18:46:32.528Z,9.50
2022-11-16T18:49:03.139Z,12.23
2022-11-16T18:51:29.969Z,15.45
2022-11-16T18:53:56.761Z,14.37
2022-11-16T18:56:24.708Z,11.55
2022-11-16T18:58:52.897Z,12.88
2022-11-16T19:01:22.935Z,14.07
2022-11-16T19:03:50.993Z,11.82
2022-11-16T19:06:18.439Z,11.40
2022-11-16T19:08:50.515Z,11.63
2022-11-16T19:11:23.104Z,12.15
2022-11-16T19:13:54.829Z,9.98
2022-11-16T19:16:22.345Z,11.00
2022-11-16T19:18:49.260Z,9.03
2022-11-16T19:21:17.072Z,7.57
2022-11-16T19:23:46.466Z,8.55
2022-11-16T19:26:17.933Z,9.63
2022-11-16T19:28:49.304Z,10.10
2022-11-16T19:31:19.656Z,9.23
2022-11-16T19:33:46.719Z,10.50
2022-11-16T19:36:15.820Z,13.60
2022-11-16T19:38:43.372Z,12.90
2022-11-16T19:41:12.038Z,10.40
2022-11-16T19:43:39.205Z,11.30
2022-11-16T19:46:14.762Z,10.20
2022-11-16T19:48:41.485Z,11.63
2022-11-16T19:51:11.284Z,9.02
2022-11-16T19:53:40.052Z,12.52
2022-11-16T19:56:10.270Z,12.63
2022-11-16T19:58:37.876Z,12.80
2022-11-16T20:01:13.944Z,12.70
2022-11-16T20:03:40.945Z,12.75
2022-11-16T20:06:34.641Z,12.02
2022-11-16T20:09:04.465Z,10.53
2022-11-16T20:11:33.725Z,9.93
2022-11-16T20:14:01.990Z,16.17
2022-11-16T20:16:38.780Z,14.30
2022-11-16T20:19:10.587Z,15.40
2022-11-16T20:21:42.113Z,15.00
2022-11-16T20:24:16.475Z,15.93
2022-11-16T20:26:45.236Z,15.10
2022-11-16T20:29:14.773Z,14.50
2022-11-16T20:31:41.681Z,15.48
2022-11-16T20:34:11.832Z,15.73
2022-11-16T20:36:38.667Z,17.55
2022-11-16T20:39:05.398Z,17.83
2022-11-16T20:41:33.554Z,18.42
2022-11-16T20:44:02.096Z,17.40
2022-11-16T20:46:33.450Z,16.53
2022-11-16T20:49:00.603Z,17.40
2022-11-16T20:51:42.930Z,17.25
2022-11-16T20:54:09.785Z,17.48
2022-11-16T20:56:36.717Z,18.60
2022-11-16T20:59:03.580Z,18.33
2022-11-16T21:01:30.484Z,19.10
2022-11-16T21:04:05.728Z,18.27
2022-11-16T21:06:33.425Z,18.20
2022-11-16T21:09:01.334Z,18.90
2022-11-16T21:11:30.292Z,18.03
2022-11-16T21:13:57.504Z,18.58
2022-11-16T21:16:24.989Z,18.83
2022-11-16T21:18:53.278Z,18.52
2022-11-16T21:21:20.038Z,18.92
2022-11-16T21:23:48.261Z,18.90
2022-11-16T21:26:15.528Z,18.98
2022-11-16T21:28:42.793Z,19.70
2022-11-16T21:31:22.523Z,19.52
2022-11-16T21:33:49.373Z,19.48
2022-11-16T21:36:18.490Z,19.50
2022-11-16T21:38:46.737Z,18.88
2022-11-16T21:41:15.579Z,19.55
2022-11-16T21:43:42.699Z,19.10
2022-11-16T21:46:15.484Z,19.02
2022-11-16T21:48:42.715Z,17.43
2022-11-16T21:51:13.060Z,17.85
2022-11-16T21:53:40.380Z,17.35
2022-11-16T21:56:10.723Z,17.20
2022-11-16T21:58:39.082Z,16.98
2022-11-16T22:01:07.766Z,17.17
2022-11-16T22:03:34.941Z,16.35
2022-11-16T22:06:10.361Z,17.67
2022-11-16T22:08:38.567Z,16.25
2022-11-16T22:11:05.683Z,16.90
2022-11-16T22:13:32.752Z,16.30
2022-11-16T22:16:13.844Z,16.60
2022-11-16T22:18:40.776Z,16.58
2022-11-16T22:21:07.808Z,17.10
2022-11-16T22:23:35.299Z,15.50
2022-11-16T22:26:04.430Z,15.90
2022-11-16T22:28:33.476Z,16.50
2022-11-16T22:31:14.455Z,16.23
2022-11-16T22:33:41.944Z,15.82
2022-11-16T22:36:12.427Z,16.58
2022-11-16T22:38:39.213Z,16.83
2022-11-16T22:41:08.077Z,16.27
2022-11-16T22:43:35.218Z,16.70
2022-11-16T22:46:05.470Z,17.20
2022-11-16T22:48:33.835Z,17.33
2022-11-16T22:51:19.105Z,17.13
2022-11-16T22:53:46.053Z,16.65
2022-11-16T22:56:13.565Z,15.57
2022-11-16T22:58:40.339Z,15.85
2022-11-16T23:01:09.191Z,16.83
2022-11-16T23:03:36.881Z,14.60
2022-11-16T23:06:05.700Z,14.65
2022-11-16T23:08:33.291Z,13.60
2022-11-16T23:11:06.524Z,13.93
2022-11-16T23:13:33.659Z,14.05
2022-11-16T23:16:04.971Z,12.93
2022-11-16T23:18:31.896Z,14.13
2022-11-16T23:20:58.709Z,14.13
2022-11-16T23:23:25.507Z,13.60
2022-11-16T23:25:53.770Z,14.32
2022-11-16T23:28:21.140Z,14.57
2022-11-16T23:30:47.865Z,14.10
2022-11-16T23:33:14.733Z,13.73
2022-11-16T23:35:54.156Z,14.48
2022-11-16T23:38:20.867Z,14.25
2022-11-16T23:40:47.657Z,14.33
2022-11-16T23:43:14.416Z,14.75
2022-11-16T23:45:42.093Z,14.27
2022-11-16T23:48:10.870Z,13.50
2022-11-16T23:50:37.876Z,12.27
2022-11-16T23:53:06.260Z,13.90
2022-11-16T23:55:34.639Z,13.88
2022-11-16T23:58:01.935Z,13.65
